createdAt,value
2023-09-08T00:01:00.320Z,13.43
2023-09-08T00:03:27.956Z,11.25
2023-09-08T00:05:55.557Z,12.45
2023-09-08T00:08:25.011Z,10.93
2023-09-08T00:10:52.644Z,11.05
2023-09-08T00:13:22.052Z,12.27
2023-09-08T00:15:49.664Z,11.48
2023-09-08T00:18:17.298Z,11.07
2023-09-08T00:20:44.912Z,11.32
2023-09-08T00:23:12.565Z,10.50
2023-09-08T00:25:40.281Z,10.87
2023-09-08T00:28:07.999Z,11.80
2023-09-08T00:30:36.978Z,11.05
2023-09-08T00:33:05.118Z,12.30
2023-09-08T00:35:32.797Z,11.88
2023-09-08T00:38:00.443Z,13.30
2023-09-08T00:40:28.907Z,10.57
2023-09-08T00:42:56.541Z,10.73
2023-09-08T00:45:25.022Z,11.88
2023-09-08T00:47:55.018Z,9.57
2023-09-08T00:50:23.035Z,10.80
2023-09-08T00:52:51.125Z,9.57
2023-09-08T00:55:19.811Z,10.77
2023-09-08T00:57:47.478Z,10.48
2023-09-08T01:00:16.149Z,10.25
2023-09-08T01:02:46.188Z,10.90
2023-09-08T01:05:15.861Z,12.68
2023-09-08T01:07:44.265Z,11.50
2023-09-08T01:10:12.662Z,17.27
2023-09-08T01:12:41.204Z,10.27
2023-09-08T01:15:09.720Z,10.93
2023-09-08T01:17:37.677Z,9.60
2023-09-08T01:20:09.266Z,10.23
2023-09-08T01:22:52.997Z,10.10
2023-09-08T01:25:24.025Z,10.80
2023-09-08T01:27:53.892Z,10.00
2023-09-08T01:30:23.771Z,9.93
2023-09-08T01:32:52.385Z,9.80
2023-09-08T01:35:20.482Z,10.93
2023-09-08T01:37:49.509Z,9.35
2023-09-08T01:40:19.820Z,10.77
2023-09-08T01:42:50.020Z,10.93
2023-09-08T01:45:17.709Z,11.23
2023-09-08T01:47:45.378Z,10.82
2023-09-08T01:50:12.985Z,11.40
2023-09-08T01:52:40.866Z,11.23
2023-09-08T01:55:09.547Z,11.20
2023-09-08T01:57:37.241Z,10.55
2023-09-08T02:00:07.719Z,9.88
2023-09-08T02:02:40.293Z,12.25
2023-09-08T02:05:09.175Z,16.50
2023-09-08T02:07:37.045Z,9.63
2023-09-08T02:10:04.958Z,10.77
2023-09-08T02:12:32.627Z,10.90
2023-09-08T02:15:01.076Z,10.27
2023-09-08T02:17:30.484Z,10.93
2023-09-08T02:19:58.184Z,11.98
2023-09-08T02:22:25.826Z,10.40
2023-09-08T02:24:53.727Z,11.63
2023-09-08T02:27:21.635Z,11.07
2023-09-08T02:29:50.850Z,12.30
2023-09-08T02:32:18.540Z,12.82
2023-09-08T02:34:49.665Z,11.98
2023-09-08T02:37:19.309Z,10.05
2023-09-08T02:39:47.026Z,11.43
2023-09-08T02:42:14.704Z,9.47
2023-09-08T02:44:42.678Z,12.25
2023-09-08T02:47:11.168Z,10.18
2023-09-08T02:49:40.348Z,11.15
2023-09-08T02:52:09.333Z,11.07
2023-09-08T02:54:37.020Z,9.93
2023-09-08T02:57:05.203Z,10.85
2023-09-08T02:59:32.889Z,9.80
2023-09-08T03:02:02.214Z,9.68
2023-09-08T03:04:29.988Z,11.60
2023-09-08T03:06:57.974Z,10.73
2023-09-08T03:09:27.003Z,10.35
2023-09-08T03:11:54.722Z,9.55
2023-09-08T03:14:22.404Z,12.00
2023-09-08T03:16:50.064Z,10.88
2023-09-08T03:19:17.748Z,10.23
2023-09-08T03:21:45.967Z,11.15
2023-09-08T03:24:13.650Z,12.95
2023-09-08T03:26:42.691Z,11.00
2023-09-08T03:29:10.317Z,14.15
2023-09-08T03:31:38.152Z,12.13
2023-09-08T03:34:06.104Z,11.55
2023-09-08T03:36:36.972Z,12.32
2023-09-08T03:39:05.455Z,10.82
2023-09-08T03:41:33.114Z,11.52
2023-09-08T03:44:02.473Z,13.77
2023-09-08T03:46:30.161Z,10.32
2023-09-08T03:49:01.814Z,12.07
2023-09-08T03:51:30.363Z,15.27
2023-09-08T03:53:58.115Z,11.80
2023-09-08T03:56:25.909Z,13.10
2023-09-08T03:58:54.127Z,14.20
2023-09-08T04:01:23.137Z,12.13
2023-09-08T04:03:50.767Z,12.13
2023-09-08T04:06:18.448Z,12.32
2023-09-08T04:08:46.299Z,11.87
2023-09-08T04:11:14.158Z,12.70
2023-09-08T04:13:41.741Z,13.32
2023-09-08T04:16:10.385Z,11.38
2023-09-08T04:18:39.561Z,11.38
2023-09-08T04:21:08.578Z,11.20
2023-09-08T04:23:36.597Z,11.80
2023-09-08T04:26:05.539Z,13.30
2023-09-08T04:28:33.474Z,13.55
2023-09-08T04:31:01.228Z,13.98
2023-09-08T04:33:30.286Z,13.97
2023-09-08T04:35:59.347Z,12.23
2023-09-08T04:38:26.937Z,13.23
2023-09-08T04:40:54.876Z,12.75
2023-09-08T04:43:22.622Z,12.25
2023-09-08T04:45:51.663Z,14.20
2023-09-08T04:48:19.558Z,11.20
2023-09-08T04:50:47.297Z,12.50
2023-09-08T04:53:16.328Z,12.82
2023-09-08T04:55:44.335Z,13.77
2023-09-08T04:58:12.129Z,10.90
2023-09-08T05:00:40.792Z,11.98
2023-09-08T05:03:09.217Z,11.65
2023-09-08T05:05:37.042Z,12.10
2023-09-08T05:08:05.245Z,12.63
2023-09-08T05:10:34.154Z,12.23
2023-09-08T05:13:02.136Z,14.30
2023-09-08T05:15:33.186Z,13.95
2023-09-08T05:18:02.722Z,12.52
2023-09-08T05:20:30.425Z,13.35
2023-09-08T05:22:58.052Z,12.40
2023-09-08T05:25:25.685Z,13.60
2023-09-08T05:27:54.968Z,11.95
2023-09-08T05:30:22.782Z,12.05
2023-09-08T05:32:50.569Z,13.60
2023-09-08T05:35:18.674Z,14.10
2023-09-08T05:37:46.847Z,11.90
2023-09-08T05:40:14.798Z,12.60
2023-09-08T05:42:44.594Z,13.35
2023-09-08T05:45:14.947Z,10.98
2023-09-08T05:47:43.227Z,11.93
2023-09-08T05:50:11.924Z,12.13
2023-09-08T05:52:39.623Z,13.70
2023-09-08T05:55:08.249Z,13.23
2023-09-08T05:57:37.956Z,10.73
2023-09-08T06:00:06.431Z,12.77
2023-09-08T06:02:42.152Z,13.00
2023-09-08T06:05:12.966Z,12.77
2023-09-08T06:07:44.070Z,12.55
2023-09-08T06:10:19.282Z,13.10
2023-09-08T06:12:47.509Z,13.67
2023-09-08T06:15:15.439Z,13.00
2023-09-08T06:17:44.974Z,13.07
2023-09-08T06:20:13.744Z,11.80
2023-09-08T06:22:41.414Z,13.10
2023-09-08T06:25:11.193Z,14.40
2023-09-08T06:27:39.641Z,14.20
2023-09-08T06:30:09.348Z,11.27
2023-09-08T06:32:37.197Z,11.85
2023-09-08T06:35:06.664Z,13.77
2023-09-08T06:37:37.386Z,11.63
2023-09-08T06:40:06.203Z,13.18
2023-09-08T06:42:35.319Z,11.23
2023-09-08T06:45:12.951Z,13.48
2023-09-08T06:47:40.584Z,14.10
2023-09-08T06:50:10.926Z,18.17
2023-09-08T06:52:38.564Z,10.32
2023-09-08T06:55:07.122Z,12.38
2023-09-08T06:57:35.045Z,14.05
2023-09-08T07:00:03.973Z,12.55
2023-09-08T07:02:31.816Z,11.97
2023-09-08T07:05:00.167Z,12.82
2023-09-08T07:07:29.333Z,11.38
2023-09-08T07:09:57.104Z,11.20
2023-09-08T07:12:24.638Z,12.60
2023-09-08T07:14:52.225Z,11.60
2023-09-08T07:17:20.109Z,13.05
2023-09-08T07:19:47.807Z,11.98
2023-09-08T07:22:15.815Z,12.75
2023-09-08T07:24:45.297Z,11.38
2023-09-08T07:27:14.899Z,11.13
2023-09-08T07:29:43.218Z,12.10
2023-09-08T07:32:10.917Z,12.20
2023-09-08T07:34:39.405Z,11.40
2023-09-08T07:37:07.017Z,10.93
2023-09-08T07:39:36.463Z,11.33
2023-09-08T07:42:06.470Z,12.85
2023-09-08T07:44:34.202Z,11.55
2023-09-08T07:47:02.436Z,13.30
2023-09-08T07:49:30.100Z,11.55
2023-09-08T07:51:57.820Z,11.17
2023-09-08T07:54:25.445Z,12.07
2023-09-08T07:56:53.137Z,12.35
2023-09-08T07:59:22.153Z,9.02
2023-09-08T08:01:50.476Z,12.55
2023-09-08T08:04:18.244Z,11.30
2023-09-08T08:06:45.890Z,10.10
2023-09-08T08:09:13.568Z,12.40
2023-09-08T08:11:41.216Z,10.80
2023-09-08T08:14:08.836Z,10.30
2023-09-08T08:16:37.833Z,10.43
2023-09-08T08:19:05.681Z,10.05
2023-09-08T08:21:33.333Z,11.82
2023-09-08T08:24:00.909Z,10.68
2023-09-08T08:26:30.923Z,11.65
2023-09-08T08:28:58.461Z,12.53
2023-09-08T08:31:26.093Z,12.25
2023-09-08T08:33:55.052Z,9.07
2023-09-08T08:36:22.774Z,12.07
2023-09-08T08:38:50.633Z,11.32
2023-09-08T08:41:18.289Z,11.70
2023-09-08T08:43:48.402Z,12.00
2023-09-08T08:46:17.009Z,10.15
2023-09-08T08:48:46.651Z,12.38
2023-09-08T08:51:17.348Z,11.77
2023-09-08T08:53:45.064Z,9.37
2023-09-08T08:56:12.633Z,10.15
2023-09-08T08:58:41.773Z,10.65
2023-09-08T09:01:09.630Z,10.05
2023-09-08T09:03:39.204Z,9.70
2023-09-08T09:06:06.924Z,13.33
2023-09-08T09:08:37.332Z,11.90
2023-09-08T09:11:05.078Z,10.45
2023-09-08T09:13:32.757Z,9.18
2023-09-08T09:16:01.352Z,10.35
2023-09-08T09:18:31.409Z,10.47
2023-09-08T09:21:03.538Z,9.50
2023-09-08T09:23:32.400Z,9.85
2023-09-08T09:26:04.741Z,9.75
2023-09-08T09:28:32.641Z,10.75
2023-09-08T09:31:00.974Z,9.70
2023-09-08T09:33:30.306Z,11.30
2023-09-08T09:35:58.479Z,9.63
2023-09-08T09:38:29.145Z,12.05
2023-09-08T09:40:57.541Z,9.63
2023-09-08T09:43:26.475Z,11.77
2023-09-08T09:45:55.695Z,11.35
2023-09-08T09:48:24.218Z,10.00
2023-09-08T09:50:51.896Z,11.15
2023-09-08T09:53:20.084Z,8.90
2023-09-08T09:55:47.881Z,9.83
2023-09-08T09:58:16.921Z,9.45
2023-09-08T10:00:49.122Z,10.30
2023-09-08T10:03:17.705Z,10.48
2023-09-08T10:05:47.980Z,10.32
2023-09-08T10:08:15.713Z,10.70
2023-09-08T10:10:47.159Z,9.13
2023-09-08T10:13:15.725Z,10.90
2023-09-08T10:15:44.251Z,8.70
2023-09-08T10:18:17.040Z,9.15
2023-09-08T10:20:46.266Z,10.67
2023-09-08T10:23:17.752Z,9.88
2023-09-08T10:25:54.127Z,10.93
2023-09-08T10:28:23.487Z,9.32
2023-09-08T10:30:52.671Z,9.20
2023-09-08T10:33:25.025Z,9.93
2023-09-08T10:35:53.602Z,11.93
2023-09-08T10:38:25.171Z,9.57
2023-09-08T10:40:53.016Z,9.43
2023-09-08T10:43:21.493Z,8.68
2023-09-08T10:45:49.690Z,9.10
2023-09-08T10:48:17.601Z,13.38
2023-09-08T10:50:46.523Z,10.82
2023-09-08T10:53:18.537Z,8.13
2023-09-08T10:56:06.310Z,10.43
2023-09-08T10:58:40.654Z,9.53
2023-09-08T11:01:08.707Z,10.43
2023-09-08T11:03:48.558Z,10.70
2023-09-08T11:06:19.804Z,11.02
2023-09-08T11:08:48.659Z,10.43
2023-09-08T11:11:18.413Z,10.37
2023-09-08T11:13:47.861Z,11.75
2023-09-08T11:16:16.922Z,10.50
2023-09-08T11:18:44.699Z,11.00
2023-09-08T11:21:12.801Z,9.48
2023-09-08T11:23:42.402Z,8.50
2023-09-08T11:26:10.892Z,8.02
2023-09-08T11:28:39.315Z,9.65
2023-09-08T11:31:07.410Z,8.35
2023-09-08T11:33:40.470Z,8.35
2023-09-08T11:36:15.420Z,9.80
2023-09-08T11:38:45.364Z,8.43
2023-09-08T11:41:13.190Z,11.50
2023-09-08T11:43:41.244Z,8.80
2023-09-08T11:46:09.216Z,10.85
2023-09-08T11:48:37.465Z,7.60
2023-09-08T11:51:05.452Z,9.18
2023-09-08T11:53:34.542Z,9.10
2023-09-08T11:56:03.665Z,7.57
2023-09-08T11:58:31.833Z,8.73
2023-09-08T12:01:00.114Z,9.57
2023-09-08T12:03:27.841Z,9.32
2023-09-08T12:05:55.922Z,9.30
2023-09-08T12:08:27.241Z,7.38
2023-09-08T12:10:55.967Z,10.00
2023-09-08T12:13:25.764Z,11.53
2023-09-08T12:15:53.882Z,7.45
2023-09-08T12:18:38.727Z,11.13
2023-09-08T12:21:06.962Z,7.63
2023-09-08T12:23:34.600Z,9.88
2023-09-08T12:26:03.228Z,8.23
2023-09-08T12:28:34.402Z,7.05
2023-09-08T12:31:02.426Z,8.90
2023-09-08T12:33:30.309Z,8.70
2023-09-08T12:35:57.956Z,9.70
2023-09-08T12:38:25.570Z,7.57
2023-09-08T12:40:53.197Z,7.40
2023-09-08T12:43:27.736Z,10.20
2023-09-08T12:45:58.052Z,7.85
2023-09-08T12:48:26.088Z,9.70
2023-09-08T12:50:53.846Z,9.30
2023-09-08T12:53:22.730Z,9.10
2023-09-08T12:55:50.676Z,7.60
2023-09-08T12:58:18.592Z,8.45
2023-09-08T13:00:46.484Z,9.30
2023-09-08T13:03:15.454Z,8.33
2023-09-08T13:05:43.277Z,8.25
2023-09-08T13:08:12.238Z,8.55
2023-09-08T13:10:40.106Z,7.88
2023-09-08T13:13:07.872Z,8.75
2023-09-08T13:15:35.619Z,9.70
2023-09-08T13:18:03.297Z,9.23
2023-09-08T13:20:32.371Z,10.02
2023-09-08T13:23:00.065Z,9.30
2023-09-08T13:25:28.039Z,8.00
2023-09-08T13:27:55.704Z,7.40
2023-09-08T13:30:27.597Z,8.30
2023-09-08T13:32:56.866Z,8.75
2023-09-08T13:35:24.689Z,8.93
2023-09-08T13:37:53.633Z,8.05
2023-09-08T13:40:21.656Z,8.73
2023-09-08T13:42:49.790Z,10.65
2023-09-08T13:45:17.429Z,9.02
2023-09-08T13:47:45.679Z,6.55
2023-09-08T13:50:14.575Z,8.48
2023-09-08T13:52:43.616Z,8.27
2023-09-08T13:55:34.737Z,9.57
2023-09-08T13:58:02.202Z,9.27
2023-09-08T14:00:32.061Z,10.35
2023-09-08T14:03:04.527Z,9.65
2023-09-08T14:05:37.004Z,7.90
2023-09-08T14:08:08.934Z,8.32
2023-09-08T14:10:51.806Z,7.78
2023-09-08T14:13:25.871Z,7.75
2023-09-08T14:15:53.540Z,6.95
2023-09-08T14:18:21.170Z,8.73
2023-09-08T14:20:48.756Z,7.05
2023-09-08T14:23:16.693Z,6.82
2023-09-08T14:25:45.675Z,7.68
2023-09-08T14:28:13.225Z,9.98
2023-09-08T14:30:41.585Z,7.17
2023-09-08T14:33:09.372Z,9.25
2023-09-08T14:35:37.116Z,8.73
2023-09-08T14:38:04.962Z,6.97
2023-09-08T14:40:32.793Z,8.50
2023-09-08T14:43:01.791Z,9.13
2023-09-08T14:45:29.427Z,7.30
2023-09-08T14:47:59.469Z,10.02
2023-09-08T14:50:28.853Z,7.18
2023-09-08T14:52:56.502Z,9.02
2023-09-08T14:55:24.173Z,7.40
2023-09-08T14:57:51.784Z,7.32
2023-09-08T15:00:21.837Z,7.50
2023-09-08T15:02:49.573Z,7.25
2023-09-08T15:05:17.326Z,8.70
2023-09-08T15:07:45.101Z,9.97
2023-09-08T15:10:13.270Z,11.55
2023-09-08T15:12:40.866Z,8.23
2023-09-08T15:15:09.774Z,7.38
2023-09-08T15:17:38.736Z,10.05
2023-09-08T15:20:07.807Z,8.57
2023-09-08T15:22:35.419Z,8.27
2023-09-08T15:25:03.162Z,8.10
2023-09-08T15:27:30.791Z,8.55
2023-09-08T15:29:58.447Z,9.85
2023-09-08T15:32:26.171Z,8.70
2023-09-08T15:34:55.258Z,8.50
2023-09-08T15:37:22.949Z,8.85
2023-09-08T15:39:50.634Z,11.75
2023-09-08T15:42:18.580Z,8.88
2023-09-08T15:44:46.164Z,7.43
2023-09-08T15:47:13.836Z,8.40
2023-09-08T15:49:41.936Z,8.77
2023-09-08T15:52:16.603Z,7.97
2023-09-08T15:54:44.783Z,9.13
2023-09-08T15:57:12.549Z,8.43
2023-09-08T15:59:40.940Z,10.90
2023-09-08T16:02:08.783Z,11.85
2023-09-08T16:04:36.724Z,8.98
2023-09-08T16:07:05.449Z,9.98
2023-09-08T16:09:34.660Z,8.90
2023-09-08T16:12:02.234Z,11.15
2023-09-08T16:14:29.990Z,7.65
2023-09-08T16:16:57.651Z,8.23
2023-09-08T16:19:25.363Z,7.70
2023-09-08T16:21:53.060Z,9.80
2023-09-08T16:24:20.662Z,8.73
2023-09-08T16:26:49.942Z,8.32
2023-09-08T16:29:17.685Z,6.95
2023-09-08T16:31:45.297Z,10.27
2023-09-08T16:34:12.967Z,8.40
2023-09-08T16:36:40.572Z,8.45
2023-09-08T16:39:08.319Z,9.48
2023-09-08T16:41:35.980Z,7.10
2023-09-08T16:44:05.178Z,8.15
2023-09-08T16:46:32.851Z,8.00
2023-09-08T16:49:00.528Z,7.82
2023-09-08T16:51:28.145Z,7.72
2023-09-08T16:53:57.326Z,8.00
2023-09-08T16:56:26.488Z,8.70
2023-09-08T16:58:54.220Z,7.97
2023-09-08T17:01:23.228Z,8.38
2023-09-08T17:03:51.081Z,10.52
2023-09-08T17:06:18.846Z,7.90
2023-09-08T17:08:46.481Z,9.35
2023-09-08T17:11:14.035Z,9.20
2023-09-08T17:13:41.607Z,8.10
2023-09-08T17:16:09.315Z,8.75
2023-09-08T17:18:38.360Z,9.85
2023-09-08T17:21:06.125Z,11.43
2023-09-08T17:23:33.786Z,7.80
2023-09-08T17:26:02.117Z,10.18
2023-09-08T17:28:29.744Z,8.82
2023-09-08T17:30:57.337Z,7.97
2023-09-08T17:33:24.907Z,10.75
2023-09-08T17:35:53.907Z,8.93
2023-09-08T17:38:21.530Z,9.25
2023-09-08T17:40:49.198Z,9.55
2023-09-08T17:43:16.801Z,8.65
2023-09-08T17:45:47.030Z,10.02
2023-09-08T17:48:14.992Z,10.40
2023-09-08T17:50:42.660Z,8.95
2023-09-08T17:53:11.678Z,9.15
2023-09-08T17:55:39.262Z,10.23
2023-09-08T17:58:06.933Z,9.15
2023-09-08T18:00:34.547Z,10.73
2023-09-08T18:03:02.259Z,8.40
2023-09-08T18:05:30.046Z,10.40
2023-09-08T18:07:57.560Z,10.10
2023-09-08T18:10:26.869Z,9.27
2023-09-08T18:12:54.525Z,9.50
2023-09-08T18:15:22.120Z,8.90
2023-09-08T18:17:49.753Z,10.05
2023-09-08T18:20:17.700Z,10.13
2023-09-08T18:22:45.287Z,10.68
2023-09-08T18:25:12.839Z,11.57
2023-09-08T18:27:41.782Z,9.95
2023-09-08T18:30:11.175Z,11.00
2023-09-08T18:32:38.887Z,11.40
2023-09-08T18:35:07.309Z,11.20
2023-09-08T18:37:34.905Z,11.33
2023-09-08T18:40:04.107Z,11.30
2023-09-08T18:42:31.720Z,11.82
2023-09-08T18:45:00.704Z,12.05
2023-09-08T18:47:28.778Z,11.23
2023-09-08T18:49:56.394Z,9.70
2023-09-08T18:52:23.965Z,9.27
2023-09-08T18:54:51.630Z,10.73
2023-09-08T18:57:19.238Z,9.45
2023-09-08T18:59:46.794Z,9.63
2023-09-08T19:02:15.780Z,11.97
2023-09-08T19:04:43.539Z,11.13
2023-09-08T19:07:11.182Z,10.20
2023-09-08T19:09:39.012Z,9.85
2023-09-08T19:12:07.042Z,9.98
2023-09-08T19:14:34.658Z,9.03
2023-09-08T19:17:03.745Z,9.45
2023-09-08T19:19:32.794Z,8.70
2023-09-08T19:22:00.387Z,9.15
2023-09-08T19:24:28.051Z,12.18
2023-09-08T19:26:55.687Z,10.47
2023-09-08T19:29:24.438Z,11.90
2023-09-08T19:31:52.093Z,9.75
2023-09-08T19:34:19.695Z,10.52
2023-09-08T19:36:48.629Z,12.00
2023-09-08T19:39:16.293Z,10.30
2023-09-08T19:41:43.914Z,9.93
2023-09-08T19:44:11.517Z,10.05
2023-09-08T19:46:39.121Z,11.85
2023-09-08T19:49:06.882Z,8.93
2023-09-08T19:51:34.539Z,11.67
2023-09-08T19:54:03.838Z,12.75
2023-09-08T19:56:31.444Z,11.52
2023-09-08T19:59:01.080Z,10.35
2023-09-08T20:01:30.534Z,11.27
2023-09-08T20:03:58.217Z,10.53
2023-09-08T20:06:25.891Z,10.77
2023-09-08T20:08:53.536Z,10.07
2023-09-08T20:11:22.519Z,12.23
2023-09-08T20:13:50.188Z,11.88
2023-09-08T20:16:17.817Z,14.70
2023-09-08T20:18:45.520Z,13.50
2023-09-08T20:21:13.166Z,14.43
2023-09-08T20:23:41.089Z,12.25
2023-09-08T20:26:09.738Z,12.15
2023-09-08T20:28:38.754Z,10.20
2023-09-08T20:31:16.194Z,11.45
2023-09-08T20:33:45.806Z,11.65
2023-09-08T20:36:13.526Z,13.27
2023-09-08T20:38:41.604Z,24.40
2023-09-08T20:41:11.398Z,18.87
2023-09-08T20:43:40.564Z,19.50
2023-09-08T20:46:08.446Z,16.27
2023-09-08T20:48:38.734Z,14.95
2023-09-08T20:51:09.099Z,12.65
2023-09-08T20:53:38.839Z,10.80
2023-09-08T20:56:08.357Z,10.82
2023-09-08T20:58:36.031Z,10.02
2023-09-08T21:01:05.532Z,10.85
2023-09-08T21:03:33.473Z,11.93
2023-09-08T21:06:01.245Z,11.20
2023-09-08T21:08:31.444Z,10.60
2023-09-08T21:10:59.567Z,9.73
2023-09-08T21:13:27.146Z,12.50
2023-09-08T21:15:54.787Z,9.85
2023-09-08T21:18:23.782Z,11.90
2023-09-08T21:20:51.446Z,9.75
2023-09-08T21:23:19.393Z,11.43
2023-09-08T21:25:46.960Z,11.05
2023-09-08T21:28:14.567Z,10.35
2023-09-08T21:30:42.174Z,11.77
2023-09-08T21:33:10.301Z,10.48
2023-09-08T21:35:39.998Z,11.20
2023-09-08T21:38:07.614Z,10.75
2023-09-08T21:40:35.191Z,10.52
2023-09-08T21:43:03.829Z,11.63
2023-09-08T21:45:31.475Z,10.77
2023-09-08T21:47:59.184Z,10.90
2023-09-08T21:50:26.811Z,11.18
2023-09-08T21:52:55.844Z,9.70
2023-09-08T21:55:23.451Z,10.37
2023-09-08T21:57:51.014Z,11.55
2023-09-08T22:00:21.997Z,10.20
2023-09-08T22:02:50.281Z,10.25
2023-09-08T22:05:18.238Z,10.57
2023-09-08T22:07:45.919Z,9.60
2023-09-08T22:10:14.990Z,10.95
2023-09-08T22:12:42.817Z,9.35
2023-09-08T22:15:11.205Z,10.27
2023-09-08T22:17:38.888Z,10.90
2023-09-08T22:20:13.909Z,10.33
2023-09-08T22:22:41.786Z,11.57
2023-09-08T22:25:11.637Z,10.57
2023-09-08T22:27:40.704Z,10.57
2023-09-08T22:30:09.419Z,9.63
2023-09-08T22:32:38.298Z,11.03
2023-09-08T22:35:06.840Z,9.20
2023-09-08T22:37:36.581Z,10.57
2023-09-08T22:40:07.321Z,10.35
2023-09-08T22:42:34.966Z,9.77
2023-09-08T22:45:05.989Z,13.33
2023-09-08T22:47:33.715Z,11.00
2023-09-08T22:50:05.086Z,11.57
2023-09-08T22:52:32.675Z,11.07
2023-09-08T22:55:12.735Z,11.77
2023-09-08T22:57:49.137Z,12.43
2023-09-08T23:00:20.045Z,10.18
2023-09-08T23:02:48.228Z,9.90
2023-09-08T23:05:16.310Z,10.65
2023-09-08T23:07:44.366Z,11.18
2023-09-08T23:10:12.332Z,11.60
2023-09-08T23:12:40.278Z,10.93
2023-09-08T23:15:10.077Z,10.75
2023-09-08T23:17:39.445Z,11.05
2023-09-08T23:20:09.021Z,11.40
2023-09-08T23:22:37.493Z,10.93
2023-09-08T23:25:06.812Z,13.23
2023-09-08T23:27:34.517Z,10.95
2023-09-08T23:30:02.962Z,11.02
2023-09-08T23:32:30.670Z,10.20
2023-09-08T23:35:00.725Z,10.50
2023-09-08T23:37:28.488Z,13.10
2023-09-08T23:39:56.127Z,13.57
2023-09-08T23:42:23.714Z,11.32
2023-09-08T23:44:51.333Z,11.65
2023-09-08T23:47:19.045Z,11.87
2023-09-08T23:49:46.634Z,11.70
2023-09-08T23:52:15.543Z,9.77
2023-09-08T23:54:43.191Z,10.77
2023-09-08T23:57:10.900Z,12.63
2023-09-08T23:59:38.691Z,11.30
